sensor_id;sensor_type;location;lat;lon;timestamp;pressure;altitude;pressure_sealevel;temperature;humidity
29825;BME280;16713;52.916;12.834;2023-10-08T00:00:48;101261.31;;;13.71;74.57
29825;BME280;16713;52.916;12.834;2023-10-08T00:03:20;101250.75;;;13.73;74.28
29825;BME280;16713;52.916;12.834;2023-10-08T00:05:47;101258.50;;;13.67;74.44
29825;BME280;16713;52.916;12.834;2023-10-08T00:08:16;101257.34;;;13.68;75.75
29825;BME280;16713;52.916;12.834;2023-10-08T00:10:44;101259.66;;;13.66;75.00
29825;BME280;16713;52.916;12.834;2023-10-08T00:13:12;101266.69;;;13.64;74.68
29825;BME280;16713;52.916;12.834;2023-10-08T00:15:39;101274.63;;;13.65;75.33
29825;BME280;16713;52.916;12.834;2023-10-08T00:18:22;101277.72;;;13.64;75.06
29825;BME280;16713;52.916;12.834;2023-10-08T00:20:50;101287.75;;;13.56;75.75
29825;BME280;16713;52.916;12.834;2023-10-08T00:23:43;101272.84;;;13.57;74.76
29825;BME280;16713;52.916;12.834;2023-10-08T00:26:16;101264.94;;;13.56;74.70
29825;BME280;16713;52.916;12.834;2023-10-08T00:28:47;101274.91;;;13.45;75.69
29825;BME280;16713;52.916;12.834;2023-10-08T00:31:14;101270.38;;;13.52;75.67
29825;BME280;16713;52.916;12.834;2023-10-08T00:33:43;101286.63;;;13.57;76.00
29825;BME280;16713;52.916;12.834;2023-10-08T00:36:11;101289.13;;;13.47;76.36
29825;BME280;16713;52.916;12.834;2023-10-08T00:38:46;101291.88;;;13.47;75.49
29825;BME280;16713;52.916;12.834;2023-10-08T00:41:26;101277.00;;;13.51;75.98
29825;BME280;16713;52.916;12.834;2023-10-08T00:43:58;101265.22;;;13.51;75.41
29825;BME280;16713;52.916;12.834;2023-10-08T00:46:29;101278.38;;;13.42;75.62
29825;BME280;16713;52.916;12.834;2023-10-08T00:49:00;101269.75;;;13.43;75.79
29825;BME280;16713;52.916;12.834;2023-10-08T00:51:56;101269.09;;;13.50;76.47
29825;BME280;16713;52.916;12.834;2023-10-08T00:54:39;101275.78;;;13.49;75.51
29825;BME280;16713;52.916;12.834;2023-10-08T00:57:23;101270.19;;;13.45;75.91
29825;BME280;16713;52.916;12.834;2023-10-08T00:59:52;101277.91;;;13.55;75.62
29825;BME280;16713;52.916;12.834;2023-10-08T01:02:25;101289.28;;;13.54;74.41
29825;BME280;16713;52.916;12.834;2023-10-08T01:04:55;101279.56;;;13.60;75.09
29825;BME280;16713;52.916;12.834;2023-10-08T01:07:23;101284.66;;;13.58;75.85
29825;BME280;16713;52.916;12.834;2023-10-08T01:09:50;101281.03;;;13.54;74.31
29825;BME280;16713;52.916;12.834;2023-10-08T01:12:20;101279.56;;;13.60;74.90
29825;BME280;16713;52.916;12.834;2023-10-08T01:14:56;101300.13;;;13.62;74.69
29825;BME280;16713;52.916;12.834;2023-10-08T01:17:39;101305.63;;;13.62;75.64
29825;BME280;16713;52.916;12.834;2023-10-08T01:20:16;101319.75;;;13.61;74.83
29825;BME280;16713;52.916;12.834;2023-10-08T01:23:09;101317.91;;;13.65;74.87
29825;BME280;16713;52.916;12.834;2023-10-08T01:25:37;101336.38;;;13.64;75.47
29825;BME280;16713;52.916;12.834;2023-10-08T01:28:05;101326.06;;;13.61;74.64
29825;BME280;16713;52.916;12.834;2023-10-08T01:30:42;101336.28;;;13.61;75.56
29825;BME280;16713;52.916;12.834;2023-10-08T01:33:14;101338.25;;;13.60;74.50
29825;BME280;16713;52.916;12.834;2023-10-08T01:35:43;101364.06;;;13.68;74.78
29825;BME280;16713;52.916;12.834;2023-10-08T01:38:10;101357.56;;;13.60;74.50
29825;BME280;16713;52.916;12.834;2023-10-08T01:40:41;101369.31;;;13.57;75.22
29825;BME280;16713;52.916;12.834;2023-10-08T01:43:07;101381.19;;;13.61;75.06
29825;BME280;16713;52.916;12.834;2023-10-08T01:45:37;101375.59;;;13.58;75.03
29825;BME280;16713;52.916;12.834;2023-10-08T01:48:07;101365.09;;;13.63;74.19
29825;BME280;16713;52.916;12.834;2023-10-08T01:50:37;101363.72;;;13.54;74.80
29825;BME280;16713;52.916;12.834;2023-10-08T01:53:04;101373.28;;;13.60;75.98
29825;BME280;16713;52.916;12.834;2023-10-08T01:55:36;101370.03;;;13.54;74.77
29825;BME280;16713;52.916;12.834;2023-10-08T01:58:16;101373.13;;;13.53;74.71
29825;BME280;16713;52.916;12.834;2023-10-08T02:00:46;101375.19;;;13.56;75.87
29825;BME280;16713;52.916;12.834;2023-10-08T02:03:14;101392.94;;;13.58;74.69
29825;BME280;16713;52.916;12.834;2023-10-08T02:05:42;101386.91;;;13.53;75.77
29825;BME280;16713;52.916;12.834;2023-10-08T02:08:10;101386.13;;;13.52;75.56
29825;BME280;16713;52.916;12.834;2023-10-08T02:10:38;101400.69;;;13.53;75.27
29825;BME280;16713;52.916;12.834;2023-10-08T02:13:07;101420.41;;;13.55;75.55
29825;BME280;16713;52.916;12.834;2023-10-08T02:15:35;101421.69;;;13.57;75.85
29825;BME280;16713;52.916;12.834;2023-10-08T02:18:03;101422.47;;;13.58;74.24
29825;BME280;16713;52.916;12.834;2023-10-08T02:20:30;101419.69;;;13.58;75.22
29825;BME280;16713;52.916;12.834;2023-10-08T02:22:57;101424.50;;;13.61;74.47
29825;BME280;16713;52.916;12.834;2023-10-08T02:25:24;101425.22;;;13.58;75.02
29825;BME280;16713;52.916;12.834;2023-10-08T02:27:50;101418.03;;;13.53;75.58
29825;BME280;16713;52.916;12.834;2023-10-08T02:30:17;101410.56;;;13.54;75.29
29825;BME280;16713;52.916;12.834;2023-10-08T02:32:44;101408.53;;;13.51;75.28
29825;BME280;16713;52.916;12.834;2023-10-08T02:35:12;101426.38;;;13.57;75.83
29825;BME280;16713;52.916;12.834;2023-10-08T02:37:40;101425.22;;;13.58;74.29
29825;BME280;16713;52.916;12.834;2023-10-08T02:40:08;101411.91;;;13.44;75.30
29825;BME280;16713;52.916;12.834;2023-10-08T02:42:48;101406.41;;;13.44;74.63
29825;BME280;16713;52.916;12.834;2023-10-08T02:45:14;101405.94;;;13.42;74.39
29825;BME280;16713;52.916;12.834;2023-10-08T02:47:43;101392.97;;;13.43;75.67
29825;BME280;16713;52.916;12.834;2023-10-08T02:50:13;101397.22;;;13.40;75.08
29825;BME280;16713;52.916;12.834;2023-10-08T02:52:44;101407.38;;;13.36;75.46
29825;BME280;16713;52.916;12.834;2023-10-08T02:55:13;101403.72;;;13.32;75.92
29825;BME280;16713;52.916;12.834;2023-10-08T02:57:51;101407.38;;;13.36;75.70
29825;BME280;16713;52.916;12.834;2023-10-08T03:00:17;101422.13;;;13.28;76.44
29825;BME280;16713;52.916;12.834;2023-10-08T03:02:46;101425.34;;;13.30;75.34
29825;BME280;16713;52.916;12.834;2023-10-08T03:05:13;101424.97;;;13.31;74.72
29825;BME280;16713;52.916;12.834;2023-10-08T03:07:43;101432.00;;;13.29;76.43
29825;BME280;16713;52.916;12.834;2023-10-08T03:10:10;101448.50;;;13.29;75.71
29825;BME280;16713;52.916;12.834;2023-10-08T03:12:46;101440.72;;;13.31;76.43
29825;BME280;16713;52.916;12.834;2023-10-08T03:15:14;101445.75;;;13.29;75.88
29825;BME280;16713;52.916;12.834;2023-10-08T03:17:55;101453.31;;;13.32;74.61
29825;BME280;16713;52.916;12.834;2023-10-08T03:20:23;101447.38;;;13.30;75.89
29825;BME280;16713;52.916;12.834;2023-10-08T03:23:05;101450.47;;;13.28;74.87
29825;BME280;16713;52.916;12.834;2023-10-08T03:25:39;101446.56;;;13.29;75.40
29825;BME280;16713;52.916;12.834;2023-10-08T03:28:09;101444.06;;;13.24;75.61
29825;BME280;16713;52.916;12.834;2023-10-08T03:30:35;101460.00;;;13.31;75.98
29825;BME280;16713;52.916;12.834;2023-10-08T03:33:17;101476.53;;;13.31;75.46
29825;BME280;16713;52.916;12.834;2023-10-08T03:35:49;101486.63;;;13.27;74.27
29825;BME280;16713;52.916;12.834;2023-10-08T03:38:19;101505.50;;;13.25;75.43
29825;BME280;16713;52.916;12.834;2023-10-08T03:40:55;101502.28;;;13.23;74.19
29825;BME280;16713;52.916;12.834;2023-10-08T03:43:33;101489.56;;;13.18;75.47
29825;BME280;16713;52.916;12.834;2023-10-08T03:46:13;101514.00;;;13.20;74.58
29825;BME280;16713;52.916;12.834;2023-10-08T03:48:43;101507.44;;;13.24;75.61
29825;BME280;16713;52.916;12.834;2023-10-08T03:51:12;101509.13;;;13.13;74.47
29825;BME280;16713;52.916;12.834;2023-10-08T03:53:39;101497.88;;;13.06;74.87
29825;BME280;16713;52.916;12.834;2023-10-08T03:56:25;101487.59;;;13.03;75.07
29825;BME280;16713;52.916;12.834;2023-10-08T03:58:56;101507.84;;;13.11;75.04
29825;BME280;16713;52.916;12.834;2023-10-08T04:01:26;101518.34;;;13.05;75.62
29825;BME280;16713;52.916;12.834;2023-10-08T04:03:58;101533.94;;;13.01;75.81
29825;BME280;16713;52.916;12.834;2023-10-08T04:06:27;101547.72;;;13.01;75.67
29825;BME280;16713;52.916;12.834;2023-10-08T04:09:05;101539.28;;;12.94;75.81
29825;BME280;16713;52.916;12.834;2023-10-08T04:11:35;101545.66;;;12.98;74.66
29825;BME280;16713;52.916;12.834;2023-10-08T04:14:02;101547.72;;;13.01;75.82
29825;BME280;16713;52.916;12.834;2023-10-08T04:16:29;101569.66;;;12.98;74.34
29825;BME280;16713;52.916;12.834;2023-10-08T04:18:56;101573.31;;;13.02;74.41
29825;BME280;16713;52.916;12.834;2023-10-08T04:21:23;101577.56;;;12.99;74.20
29825;BME280;16713;52.916;12.834;2023-10-08T04:23:54;101559.09;;;13.00;74.54
29825;BME280;16713;52.916;12.834;2023-10-08T04:26:24;101557.16;;;12.88;75.03
29825;BME280;16713;52.916;12.834;2023-10-08T04:28:55;101562.59;;;12.85;75.11
29825;BME280;16713;52.916;12.834;2023-10-08T04:31:24;101567.63;;;12.83;74.46
29825;BME280;16713;52.916;12.834;2023-10-08T04:33:55;101571.78;;;12.77;74.01
29825;BME280;16713;52.916;12.834;2023-10-08T04:36:27;101568.69;;;12.78;74.18
29825;BME280;16713;52.916;12.834;2023-10-08T04:38:53;101565.59;;;12.80;74.41
29825;BME280;16713;52.916;12.834;2023-10-08T04:41:21;101565.00;;;12.86;74.19
29825;BME280;16713;52.916;12.834;2023-10-08T04:43:54;101578.09;;;12.77;74.95
29825;BME280;16713;52.916;12.834;2023-10-08T04:46:22;101575.69;;;12.76;74.91
29825;BME280;16713;52.916;12.834;2023-10-08T04:49:06;101597.84;;;12.67;73.66
29825;BME280;16713;52.916;12.834;2023-10-08T04:51:34;101605.38;;;12.58;75.29
29825;BME280;16713;52.916;12.834;2023-10-08T04:54:11;101610.88;;;12.58;74.35
29825;BME280;16713;52.916;12.834;2023-10-08T04:56:43;101611.47;;;12.64;74.64
29825;BME280;16713;52.916;12.834;2023-10-08T04:59:10;101604.59;;;12.58;73.81
29825;BME280;16713;52.916;12.834;2023-10-08T05:01:39;101608.59;;;12.60;75.38
29825;BME280;16713;52.916;12.834;2023-10-08T05:04:29;101617.75;;;12.64;75.43
29825;BME280;16713;52.916;12.834;2023-10-08T05:07:24;101617.91;;;12.56;74.05
29825;BME280;16713;52.916;12.834;2023-10-08T05:10:20;101622.38;;;12.60;74.21
29825;BME280;16713;52.916;12.834;2023-10-08T05:12:53;101633.38;;;12.60;73.85
29825;BME280;16713;52.916;12.834;2023-10-08T05:15:32;101631.06;;;12.50;73.95
29825;BME280;16713;52.916;12.834;2023-10-08T05:18:34;101637.88;;;12.65;73.66
29825;BME280;16713;52.916;12.834;2023-10-08T05:21:33;101633.16;;;12.41;74.23
29825;BME280;16713;52.916;12.834;2023-10-08T05:24:18;101630.63;;;12.36;73.46
29825;BME280;16713;52.916;12.834;2023-10-08T05:26:54;101641.75;;;12.16;74.55
29825;BME280;16713;52.916;12.834;2023-10-08T05:29:40;101645.66;;;12.27;75.08
29825;BME280;16713;52.916;12.834;2023-10-08T05:32:35;101645.97;;;12.13;75.25
29825;BME280;16713;52.916;12.834;2023-10-08T05:35:12;101648.38;;;12.15;75.77
29825;BME280;16713;52.916;12.834;2023-10-08T05:38:19;101648.50;;;12.18;74.48
29825;BME280;16713;52.916;12.834;2023-10-08T05:40:51;101648.03;;;12.16;75.08
29825;BME280;16713;52.916;12.834;2023-10-08T05:43:37;101659.97;;;12.20;74.52
29825;BME280;16713;52.916;12.834;2023-10-08T05:46:21;101670.16;;;12.20;75.54
29825;BME280;16713;52.916;12.834;2023-10-08T05:48:57;101682.44;;;12.22;74.94
29825;BME280;16713;52.916;12.834;2023-10-08T05:51:35;101689.41;;;12.20;75.47
29825;BME280;16713;52.916;12.834;2023-10-08T05:54:21;101683.22;;;12.11;74.75
29825;BME280;16713;52.916;12.834;2023-10-08T05:56:58;101692.63;;;12.22;74.42
29825;BME280;16713;52.916;12.834;2023-10-08T05:59:54;101708.56;;;12.28;74.82
29825;BME280;16713;52.916;12.834;2023-10-08T06:02:33;101725.53;;;12.30;74.71
29825;BME280;16713;52.916;12.834;2023-10-08T06:07:47;101753.97;;;12.34;75.19
29825;BME280;16713;52.916;12.834;2023-10-08T06:10:17;101748.94;;;12.36;74.23
29825;BME280;16713;52.916;12.834;2023-10-08T06:15:38;101741.94;;;12.39;74.10
29825;BME280;16713;52.916;12.834;2023-10-08T06:18:27;101749.41;;;12.38;74.91
29825;BME280;16713;52.916;12.834;2023-10-08T06:21:06;101754.56;;;12.40;73.96
29825;BME280;16713;52.916;12.834;2023-10-08T06:23:35;101751.69;;;12.36;75.44
29825;BME280;16713;52.916;12.834;2023-10-08T06:26:03;101753.53;;;12.44;73.90
29825;BME280;16713;52.916;12.834;2023-10-08T06:28:41;101765.22;;;12.41;74.98
29825;BME280;16713;52.916;12.834;2023-10-08T06:31:08;101773.03;;;12.51;75.12
29825;BME280;16713;52.916;12.834;2023-10-08T06:33:39;101782.44;;;12.50;73.51
29825;BME280;16713;52.916;12.834;2023-10-08T06:36:07;101795.06;;;12.51;73.90
29825;BME280;16713;52.916;12.834;2023-10-08T06:38:38;101789.78;;;12.58;74.08
29825;BME280;16713;52.916;12.834;2023-10-08T06:41:08;101796.19;;;12.50;73.69
29825;BME280;16713;52.916;12.834;2023-10-08T06:43:37;101793.81;;;12.61;73.58
29825;BME280;16713;52.916;12.834;2023-10-08T06:46:04;101791.50;;;12.63;72.86
29825;BME280;16713;52.916;12.834;2023-10-08T06:48:33;101801.38;;;12.64;73.85
29825;BME280;16713;52.916;12.834;2023-10-08T06:51:01;101798.97;;;12.62;73.61
29825;BME280;16713;52.916;12.834;2023-10-08T06:53:34;101796.22;;;12.62;73.96
29825;BME280;16713;52.916;12.834;2023-10-08T06:56:01;101812.75;;;12.62;72.53
29825;BME280;16713;52.916;12.834;2023-10-08T06:58:31;101816.63;;;12.61;72.33
29825;BME280;16713;52.916;12.834;2023-10-08T07:00:58;101827.63;;;12.61;72.76
29825;BME280;16713;52.916;12.834;2023-10-08T07:03:30;101834.97;;;12.57;73.24
29825;BME280;16713;52.916;12.834;2023-10-08T07:05:58;101830.84;;;12.51;71.88
29825;BME280;16713;52.916;12.834;2023-10-08T07:08:26;101839.53;;;12.53;72.68
29825;BME280;16713;52.916;12.834;2023-10-08T07:10:53;101842.63;;;12.52;72.95
29825;BME280;16713;52.916;12.834;2023-10-08T07:13:20;101840.22;;;12.50;72.33
29825;BME280;16713;52.916;12.834;2023-10-08T07:15:49;101844.59;;;12.51;71.36
29825;BME280;16713;52.916;12.834;2023-10-08T07:18:16;101859.59;;;12.54;71.57
29825;BME280;16713;52.916;12.834;2023-10-08T07:20:54;101869.13;;;12.56;70.55
29825;BME280;16713;52.916;12.834;2023-10-08T07:23:25;101871.88;;;12.56;70.05
29825;BME280;16713;52.916;12.834;2023-10-08T07:25:52;101874.19;;;12.54;71.20
29825;BME280;16713;52.916;12.834;2023-10-08T07:28:19;101875.84;;;12.47;72.38
29825;BME280;16713;52.916;12.834;2023-10-08T07:30:46;101874.72;;;12.48;71.36
29825;BME280;16713;52.916;12.834;2023-10-08T07:33:14;101883.91;;;12.52;70.97
29825;BME280;16713;52.916;12.834;2023-10-08T07:35:47;101883.31;;;12.46;71.75
29825;BME280;16713;52.916;12.834;2023-10-08T07:38:33;101879.75;;;12.46;71.11
29825;BME280;16713;52.916;12.834;2023-10-08T07:41:01;101884.94;;;12.47;71.75
29825;BME280;16713;52.916;12.834;2023-10-08T07:43:28;101876.34;;;12.49;71.57
29825;BME280;16713;52.916;12.834;2023-10-08T07:45:58;101893.66;;;12.49;71.57
29825;BME280;16713;52.916;12.834;2023-10-08T07:48:26;101887.94;;;12.54;70.08
29825;BME280;16713;52.916;12.834;2023-10-08T07:50:56;101900.53;;;12.55;71.94
29825;BME280;16713;52.916;12.834;2023-10-08T07:53:23;101898.28;;;12.57;71.75
29825;BME280;16713;52.916;12.834;2023-10-08T07:55:50;101906.19;;;12.59;72.17
29825;BME280;16713;52.916;12.834;2023-10-08T07:58:18;101907.25;;;12.66;70.50
29825;BME280;16713;52.916;12.834;2023-10-08T08:00:44;101912.09;;;12.69;71.52
29825;BME280;16713;52.916;12.834;2023-10-08T08:03:22;101916.00;;;12.68;71.72
29825;BME280;16713;52.916;12.834;2023-10-08T08:05:51;101907.41;;;12.70;71.37
29825;BME280;16713;52.916;12.834;2023-10-08T08:08:19;101908.56;;;12.69;71.32
29825;BME280;16713;52.916;12.834;2023-10-08T08:10:48;101915.31;;;12.71;71.04
29825;BME280;16713;52.916;12.834;2023-10-08T08:13:15;101931.84;;;12.71;70.54
29825;BME280;16713;52.916;12.834;2023-10-08T08:15:47;101922.41;;;12.72;69.28
29825;BME280;16713;52.916;12.834;2023-10-08T08:18:18;101937.00;;;12.73;71.42
29825;BME280;16713;52.916;12.834;2023-10-08T08:20:49;101936.66;;;12.74;72.23
29825;BME280;16713;52.916;12.834;2023-10-08T08:23:15;101939.75;;;12.73;69.78
29825;BME280;16713;52.916;12.834;2023-10-08T08:25:42;101943.31;;;12.73;70.86
29825;BME280;16713;52.916;12.834;2023-10-08T08:28:12;101944.44;;;12.72;70.64
29825;BME280;16713;52.916;12.834;2023-10-08T08:30:47;101944.22;;;12.77;67.02
29825;BME280;16713;52.916;12.834;2023-10-08T08:33:14;101951.03;;;12.80;68.59
29825;BME280;16713;52.916;12.834;2023-10-08T08:35:58;101950.69;;;12.81;67.54
29825;BME280;16713;52.916;12.834;2023-10-08T08:38:27;101955.03;;;12.82;68.90
29825;BME280;16713;52.916;12.834;2023-10-08T08:41:01;101949.66;;;12.86;70.65
29825;BME280;16713;52.916;12.834;2023-10-08T08:43:35;101955.31;;;12.89;68.97
29825;BME280;16713;52.916;12.834;2023-10-08T08:46:03;101962.06;;;12.92;67.46
29825;BME280;16713;52.916;12.834;2023-10-08T08:48:33;101965.88;;;12.99;66.07
29825;BME280;16713;52.916;12.834;2023-10-08T08:51:00;101974.59;;;13.01;67.48
29825;BME280;16713;52.916;12.834;2023-10-08T08:53:27;101966.81;;;13.03;67.47
29825;BME280;16713;52.916;12.834;2023-10-08T08:55:55;101964.53;;;13.05;67.69
29825;BME280;16713;52.916;12.834;2023-10-08T08:58:21;101964.66;;;13.09;68.20
29825;BME280;16713;52.916;12.834;2023-10-08T09:00:49;101972.34;;;13.15;67.74
29825;BME280;16713;52.916;12.834;2023-10-08T09:03:18;101973.63;;;13.18;70.32
29825;BME280;16713;52.916;12.834;2023-10-08T09:05:46;101980.28;;;13.17;68.11
29825;BME280;16713;52.916;12.834;2023-10-08T09:08:17;101979.94;;;13.18;67.14
29825;BME280;16713;52.916;12.834;2023-10-08T09:10:45;101976.03;;;13.19;67.97
29825;BME280;16713;52.916;12.834;2023-10-08T09:13:21;101984.75;;;13.21;66.58
29825;BME280;16713;52.916;12.834;2023-10-08T09:15:51;101993.03;;;13.21;64.84
29825;BME280;16713;52.916;12.834;2023-10-08T09:18:22;101987.16;;;13.23;67.57
29825;BME280;16713;52.916;12.834;2023-10-08T09:20:48;101989.25;;;13.26;67.50
29825;BME280;16713;52.916;12.834;2023-10-08T09:23:16;101993.25;;;13.28;67.83
29825;BME280;16713;52.916;12.834;2023-10-08T09:25:48;101986.28;;;13.31;66.13
29825;BME280;16713;52.916;12.834;2023-10-08T09:28:16;101988.34;;;13.34;65.37
29825;BME280;16713;52.916;12.834;2023-10-08T09:30:44;101988.47;;;13.37;64.36
29825;BME280;16713;52.916;12.834;2023-10-08T09:33:14;101994.88;;;13.42;63.63
29825;BME280;16713;52.916;12.834;2023-10-08T09:35:44;101990.19;;;13.42;65.51
29825;BME280;16713;52.916;12.834;2023-10-08T09:38:12;102005.56;;;13.43;64.72
29825;BME280;16713;52.916;12.834;2023-10-08T09:40:39;102006.84;;;13.46;66.46
29825;BME280;16713;52.916;12.834;2023-10-08T09:43:10;102018.78;;;13.50;64.83
29825;BME280;16713;52.916;12.834;2023-10-08T09:45:37;102019.94;;;13.49;62.00
29825;BME280;16713;52.916;12.834;2023-10-08T09:48:05;102027.53;;;13.52;65.30
29825;BME280;16713;52.916;12.834;2023-10-08T09:50:36;102031.88;;;13.53;65.06
29825;BME280;16713;52.916;12.834;2023-10-08T09:53:08;102034.31;;;13.54;66.26
29825;BME280;16713;52.916;12.834;2023-10-08T09:55:44;102037.41;;;13.53;64.68
29825;BME280;16713;52.916;12.834;2023-10-08T09:58:10;102037.66;;;13.60;63.34
29825;BME280;16713;52.916;12.834;2023-10-08T10:00:40;102038.94;;;13.62;64.31
29825;BME280;16713;52.916;12.834;2023-10-08T10:03:08;102045.22;;;13.63;64.51
29825;BME280;16713;52.916;12.834;2023-10-08T10:05:35;102048.31;;;13.61;61.86
29825;BME280;16713;52.916;12.834;2023-10-08T10:08:04;102037.09;;;13.66;60.96
29825;BME280;16713;52.916;12.834;2023-10-08T10:10:37;102045.50;;;13.70;62.43
29825;BME280;16713;52.916;12.834;2023-10-08T10:13:10;102048.72;;;13.72;61.01
29825;BME280;16713;52.916;12.834;2023-10-08T10:15:37;102048.72;;;13.72;61.18
29825;BME280;16713;52.916;12.834;2023-10-08T10:18:14;102045.50;;;13.70;60.26
29825;BME280;16713;52.916;12.834;2023-10-08T10:20:44;102055.03;;;13.72;61.27
29825;BME280;16713;52.916;12.834;2023-10-08T10:23:34;102070.03;;;13.63;60.42
29825;BME280;16713;52.916;12.834;2023-10-08T10:26:01;102066.75;;;13.69;56.80
29825;BME280;16713;52.916;12.834;2023-10-08T10:28:28;102055.84;;;13.73;55.47
29825;BME280;16713;52.916;12.834;2023-10-08T10:30:55;102059.63;;;13.68;55.14
29825;BME280;16713;52.916;12.834;2023-10-08T10:33:30;102059.63;;;13.68;56.89
29825;BME280;16713;52.916;12.834;2023-10-08T10:35:58;102067.13;;;13.80;57.30
29825;BME280;16713;52.916;12.834;2023-10-08T10:38:26;102067.22;;;13.83;57.81
29825;BME280;16713;52.916;12.834;2023-10-08T10:40:53;102075.50;;;13.83;58.43
29825;BME280;16713;52.916;12.834;2023-10-08T10:43:26;102074.72;;;13.83;57.46
29825;BME280;16713;52.916;12.834;2023-10-08T10:45:59;102075.41;;;13.80;56.67
29825;BME280;16713;52.916;12.834;2023-10-08T10:48:38;102081.13;;;13.87;54.96
29825;BME280;16713;52.916;12.834;2023-10-08T10:51:05;102090.34;;;13.91;54.75
29825;BME280;16713;52.916;12.834;2023-10-08T10:53:32;102085.63;;;13.91;53.00
29825;BME280;16713;52.916;12.834;2023-10-08T10:55:59;102084.72;;;13.87;56.36
29825;BME280;16713;52.916;12.834;2023-10-08T10:58:36;102088.16;;;13.84;57.71
29825;BME280;16713;52.916;12.834;2023-10-08T11:01:06;102096.31;;;13.81;56.86
29825;BME280;16713;52.916;12.834;2023-10-08T11:03:50;102095.88;;;13.91;55.51
29825;BME280;16713;52.916;12.834;2023-10-08T11:06:18;102089.31;;;13.95;56.74
29825;BME280;16713;52.916;12.834;2023-10-08T11:08:52;102088.84;;;13.93;57.01
29825;BME280;16713;52.916;12.834;2023-10-08T11:11:25;102092.19;;;13.99;56.87
29825;BME280;16713;52.916;12.834;2023-10-08T11:13:57;102097.72;;;13.99;56.04
29825;BME280;16713;52.916;12.834;2023-10-08T11:16:27;102097.94;;;14.06;56.11
29825;BME280;16713;52.916;12.834;2023-10-08T11:18:53;102092.88;;;14.08;56.58
29825;BME280;16713;52.916;12.834;2023-10-08T11:21:24;102100.81;;;14.09;56.46
29825;BME280;16713;52.916;12.834;2023-10-08T11:23:52;102098.03;;;14.09;55.42
29825;BME280;16713;52.916;12.834;2023-10-08T11:26:35;102103.00;;;14.04;54.44
29825;BME280;16713;52.916;12.834;2023-10-08T11:29:06;102100.59;;;14.02;52.88
29825;BME280;16713;52.916;12.834;2023-10-08T11:31:40;102092.97;;;13.99;54.01
29825;BME280;16713;52.916;12.834;2023-10-08T11:34:06;102105.84;;;14.07;53.49
29825;BME280;16713;52.916;12.834;2023-10-08T11:36:36;102112.09;;;14.16;53.36
29825;BME280;16713;52.916;12.834;2023-10-08T11:39:16;102110.13;;;14.17;56.15
29825;BME280;16713;52.916;12.834;2023-10-08T11:41:58;102108.97;;;14.18;55.98
29825;BME280;16713;52.916;12.834;2023-10-08T11:44:30;102103.94;;;14.20;55.53
29825;BME280;16713;52.916;12.834;2023-10-08T11:46:57;102114.28;;;14.23;54.56
29825;BME280;16713;52.916;12.834;2023-10-08T11:49:31;102126.22;;;14.27;53.37
29825;BME280;16713;52.916;12.834;2023-10-08T11:52:02;102119.78;;;14.35;51.83
29825;BME280;16713;52.916;12.834;2023-10-08T11:54:29;102126.94;;;14.36;52.83
29825;BME280;16713;52.916;12.834;2023-10-08T11:56:59;102127.84;;;14.40;52.55
29825;BME280;16713;52.916;12.834;2023-10-08T11:59:27;102119.19;;;14.41;53.58
29825;BME280;16713;52.916;12.834;2023-10-08T12:01:55;102121.84;;;14.38;52.82
29825;BME280;16713;52.916;12.834;2023-10-08T12:04:22;102122.06;;;14.33;52.76
29825;BME280;16713;52.916;12.834;2023-10-08T12:06:49;102120.91;;;14.46;52.03
29825;BME280;16713;52.916;12.834;2023-10-08T12:09:18;102111.50;;;14.47;51.27
29825;BME280;16713;52.916;12.834;2023-10-08T12:11:48;102114.97;;;14.44;51.12
29825;BME280;16713;52.916;12.834;2023-10-08T12:14:14;102115.19;;;14.39;53.27
29825;BME280;16713;52.916;12.834;2023-10-08T12:16:41;102117.94;;;14.39;50.21
29825;BME280;16713;52.916;12.834;2023-10-08T12:19:08;102120.38;;;14.40;49.41
29825;BME280;16713;52.916;12.834;2023-10-08T12:21:44;102112.88;;;14.41;50.90
29825;BME280;16713;52.916;12.834;2023-10-08T12:24:13;102108.16;;;14.41;50.91
29825;BME280;16713;52.916;12.834;2023-10-08T12:26:40;102116.91;;;14.43;51.13
29825;BME280;16713;52.916;12.834;2023-10-08T12:29:16;102108.38;;;14.36;50.43
29825;BME280;16713;52.916;12.834;2023-10-08T12:31:45;102109.19;;;14.37;51.37
29825;BME280;16713;52.916;12.834;2023-10-08T12:34:14;102117.94;;;14.39;52.52
29825;BME280;16713;52.916;12.834;2023-10-08T12:36:40;102113.91;;;14.36;50.83
29825;BME280;16713;52.916;12.834;2023-10-08T12:39:08;102107.69;;;14.39;51.64
29825;BME280;16713;52.916;12.834;2023-10-08T12:41:37;102103.09;;;14.43;49.61
29825;BME280;16713;52.916;12.834;2023-10-08T12:44:05;102121.25;;;14.44;51.60
29825;BME280;16713;52.916;12.834;2023-10-08T12:46:33;102116.22;;;14.46;50.08
29825;BME280;16713;52.916;12.834;2023-10-08T12:49:00;102117.72;;;14.44;50.29
29825;BME280;16713;52.916;12.834;2023-10-08T12:51:28;102112.28;;;14.47;50.06
29825;BME280;16713;52.916;12.834;2023-10-08T12:53:59;102105.75;;;14.52;51.97
29825;BME280;16713;52.916;12.834;2023-10-08T12:56:30;102120.34;;;14.52;51.79
29825;BME280;16713;52.916;12.834;2023-10-08T12:59:12;102120.00;;;14.54;51.64
29825;BME280;16713;52.916;12.834;2023-10-08T13:01:47;102123.91;;;14.53;50.59
29825;BME280;16713;52.916;12.834;2023-10-08T13:04:17;102127.84;;;14.52;52.23
29825;BME280;16713;52.916;12.834;2023-10-08T13:06:52;102127.03;;;14.51;51.64
29825;BME280;16713;52.916;12.834;2023-10-08T13:09:23;102122.31;;;14.52;50.57